createdAt,value
2023-10-15T00:01:14.509Z,101607.97
2023-10-15T00:03:48.102Z,101603.72
2023-10-15T00:06:20.970Z,101610.72
2023-10-15T00:08:47.709Z,101601.97
2023-10-15T00:11:21.951Z,101601.97
2023-10-15T00:13:49.521Z,101591.47
2023-10-15T00:16:28.041Z,101607.28
2023-10-15T00:18:54.874Z,101610.72
2023-10-15T00:21:28.987Z,101605.34
2023-10-15T00:24:01.940Z,101600.03
2023-10-15T00:26:35.943Z,101613.16
2023-10-15T00:29:03.071Z,101603.47
2023-10-15T00:31:29.854Z,101608.69
2023-10-15T00:34:02.948Z,101596.38
2023-10-15T00:36:36.036Z,101596.22
2023-10-15T00:39:02.945Z,101611.13
2023-10-15T00:41:35.932Z,101605.72
2023-10-15T00:44:08.964Z,101603.09
2023-10-15T00:46:39.219Z,101600.34
2023-10-15T00:49:23.165Z,101608.13
2023-10-15T00:51:53.000Z,101602.84
2023-10-15T00:54:27.091Z,101601.84
2023-10-15T00:56:56.085Z,101590.25
2023-10-15T00:59:29.008Z,101591.25
2023-10-15T01:02:02.087Z,101594.50
2023-10-15T01:04:39.981Z,101582.91
2023-10-15T01:07:29.519Z,101591.56
2023-10-15T01:10:04.997Z,101573.78
2023-10-15T01:12:34.784Z,101564.97
2023-10-15T01:15:08.069Z,101560.97
2023-10-15T01:17:40.652Z,101568.72
2023-10-15T01:20:18.023Z,101570.31
2023-10-15T01:22:44.824Z,101571.00
2023-10-15T01:25:25.113Z,101571.34
2023-10-15T01:27:56.864Z,101581.69
2023-10-15T01:30:31.990Z,101589.38
2023-10-15T01:33:07.418Z,101584.16
2023-10-15T01:35:41.102Z,101574.94
2023-10-15T01:38:21.626Z,101601.03
2023-10-15T01:41:00.020Z,101614.28
2023-10-15T01:43:33.977Z,101606.63
2023-10-15T01:46:08.186Z,101608.28
2023-10-15T01:48:46.986Z,101597.84
2023-10-15T01:51:23.994Z,101589.03
2023-10-15T01:53:59.002Z,101583.91
2023-10-15T01:56:31.946Z,101586.59
2023-10-15T01:59:04.978Z,101578.91
2023-10-15T02:01:57.026Z,101601.66
2023-10-15T02:04:37.041Z,101593.84
2023-10-15T02:07:03.948Z,101598.25
2023-10-15T02:09:37.999Z,101611.50
2023-10-15T02:12:06.561Z,101607.19
2023-10-15T02:14:39.989Z,101597.53
2023-10-15T02:17:07.786Z,101579.41
2023-10-15T02:19:49.281Z,101579.22
2023-10-15T02:22:17.053Z,101579.22
2023-10-15T02:24:56.075Z,101587.25
2023-10-15T02:27:26.445Z,101584.06
2023-10-15T02:30:00.008Z,101595.38
2023-10-15T02:32:30.620Z,101598.94
2023-10-15T02:35:07.057Z,101599.81
2023-10-15T02:37:33.864Z,101609.63
2023-10-15T02:40:08.039Z,101603.41
2023-10-15T02:42:43.973Z,101608.69
2023-10-15T02:45:21.990Z,101609.47
2023-10-15T02:47:56.657Z,101607.75
2023-10-15T02:50:34.022Z,101598.03
2023-10-15T02:53:06.431Z,101598.19
2023-10-15T02:55:55.073Z,101599.63
2023-10-15T02:58:28.685Z,101613.66
2023-10-15T03:01:07.078Z,101610.19
2023-10-15T03:03:56.353Z,101612.97
2023-10-15T03:06:40.047Z,101626.06
2023-10-15T03:09:19.043Z,101622.47
2023-10-15T03:11:58.033Z,101624.16
2023-10-15T03:14:26.718Z,101625.13
2023-10-15T03:17:05.007Z,101631.19
2023-10-15T03:19:41.051Z,101617.97
2023-10-15T03:22:10.229Z,101604.72
2023-10-15T03:24:45.037Z,101612.66
2023-10-15T03:27:17.499Z,101605.63
2023-10-15T03:29:59.101Z,101599.41
2023-10-15T03:32:39.090Z,101581.66
2023-10-15T03:35:26.099Z,101557.03
2023-10-15T03:38:07.055Z,101553.50
2023-10-15T03:40:41.067Z,101570.28
2023-10-15T03:43:15.066Z,101573.00
2023-10-15T03:45:58.139Z,101569.50
2023-10-15T03:48:31.752Z,101571.38
2023-10-15T03:51:06.053Z,101575.88
2023-10-15T03:53:37.466Z,101576.91
2023-10-15T03:56:12.089Z,101581.50
2023-10-15T03:58:38.860Z,101577.38
2023-10-15T04:01:24.086Z,101581.03
2023-10-15T04:03:57.913Z,101580.41
2023-10-15T04:06:31.047Z,101584.22
2023-10-15T04:09:16.693Z,101576.53
2023-10-15T04:11:50.031Z,101582.75
2023-10-15T04:14:29.999Z,101595.19
2023-10-15T04:17:07.798Z,101576.63
2023-10-15T04:19:37.396Z,101572.06
2023-10-15T04:22:23.200Z,101569.38
2023-10-15T04:24:51.537Z,101568.44
2023-10-15T04:27:26.074Z,101565.94
2023-10-15T04:29:54.811Z,101583.22
2023-10-15T04:32:37.123Z,101595.44
2023-10-15T04:35:07.257Z,101584.84
2023-10-15T04:37:44.120Z,101601.59
2023-10-15T04:40:19.363Z,101597.97
2023-10-15T04:42:59.070Z,101602.22
2023-10-15T04:45:26.887Z,101600.44
2023-10-15T04:48:07.084Z,101606.59
2023-10-15T04:50:37.705Z,101610.94
2023-10-15T04:53:32.057Z,101614.59
2023-10-15T04:56:01.263Z,101618.03
2023-10-15T04:58:37.156Z,101617.09
2023-10-15T05:01:11.243Z,101609.09
2023-10-15T05:03:54.156Z,101609.16
2023-10-15T05:06:22.655Z,101602.84
2023-10-15T05:08:56.050Z,101591.41
2023-10-15T05:11:29.078Z,101598.41
2023-10-15T05:14:02.144Z,101598.50
2023-10-15T05:16:29.056Z,101601.34
2023-10-15T05:18:55.882Z,101609.16
2023-10-15T05:21:29.113Z,101600.59
2023-10-15T05:23:55.816Z,101590.16
2023-10-15T05:26:30.137Z,101603.00
2023-10-15T05:28:56.856Z,101603.00
2023-10-15T05:31:30.239Z,101603.94
2023-10-15T05:33:57.058Z,101580.03
2023-10-15T05:36:30.128Z,101557.13
2023-10-15T05:38:56.805Z,101552.06
2023-10-15T05:41:32.126Z,101568.97
2023-10-15T05:43:59.273Z,101592.66
2023-10-15T05:46:34.161Z,101597.25
2023-10-15T05:49:07.110Z,101593.91
2023-10-15T05:51:34.063Z,101588.13
2023-10-15T05:54:14.089Z,101609.00
2023-10-15T05:56:40.934Z,101604.72
2023-10-15T05:59:16.076Z,101601.38
2023-10-15T06:01:49.268Z,101610.34
2023-10-15T06:04:29.266Z,101614.94
2023-10-15T06:06:56.896Z,101584.19
2023-10-15T06:09:30.066Z,101625.03
2023-10-15T06:11:56.720Z,101618.31
2023-10-15T06:14:31.065Z,101633.13
2023-10-15T06:16:58.353Z,101635.13
2023-10-15T06:19:32.153Z,101647.25
2023-10-15T06:21:58.937Z,101648.91
2023-10-15T06:24:32.067Z,101648.84
2023-10-15T06:27:05.741Z,101649.63
2023-10-15T06:29:39.135Z,101656.56
2023-10-15T06:32:12.176Z,101649.53
2023-10-15T06:34:40.695Z,101664.44
2023-10-15T06:37:17.110Z,101663.50
2023-10-15T06:39:43.819Z,101668.63
2023-10-15T06:42:17.113Z,101665.13
2023-10-15T06:44:43.849Z,101665.97
2023-10-15T06:47:17.207Z,101680.00
2023-10-15T06:49:43.956Z,101691.38
2023-10-15T06:52:17.161Z,101680.94
2023-10-15T06:54:43.820Z,101690.31
2023-10-15T06:57:17.156Z,101706.88
2023-10-15T06:59:46.884Z,101709.22
2023-10-15T07:02:27.186Z,101712.53
2023-10-15T07:05:00.208Z,101712.38
2023-10-15T07:07:26.903Z,101714.84
2023-10-15T07:10:01.152Z,101709.00
2023-10-15T07:12:34.156Z,101722.72
2023-10-15T07:15:07.114Z,101734.97
2023-10-15T07:17:33.924Z,101727.81
2023-10-15T07:20:07.126Z,101730.84
2023-10-15T07:22:33.828Z,101736.38
2023-10-15T07:25:07.093Z,101737.03
2023-10-15T07:27:34.197Z,101738.81
2023-10-15T07:30:07.152Z,101720.06
2023-10-15T07:32:41.192Z,101744.47
2023-10-15T07:35:19.157Z,101742.16
2023-10-15T07:37:54.183Z,101749.53
2023-10-15T07:40:34.652Z,101739.44
2023-10-15T07:43:02.076Z,101732.47
2023-10-15T07:45:37.127Z,101737.59
2023-10-15T07:48:05.711Z,101727.53
2023-10-15T07:50:42.231Z,101750.03
2023-10-15T07:53:15.155Z,101732.06
2023-10-15T07:55:42.150Z,101746.47
2023-10-15T07:58:17.194Z,101752.16
2023-10-15T08:00:43.969Z,101765.09
2023-10-15T08:03:24.400Z,101754.97
2023-10-15T08:05:51.770Z,101764.88
2023-10-15T08:08:25.119Z,101762.00
2023-10-15T08:11:00.196Z,101762.16
2023-10-15T08:13:26.959Z,101764.28
2023-10-15T08:16:00.198Z,101766.75
2023-10-15T08:18:34.203Z,101768.09
2023-10-15T08:21:07.116Z,101793.97
2023-10-15T08:23:33.828Z,101793.63
2023-10-15T08:26:07.258Z,101795.03
2023-10-15T08:28:34.193Z,101794.50
2023-10-15T08:31:08.291Z,101802.31
2023-10-15T08:33:35.286Z,101813.28
2023-10-15T08:36:10.210Z,101801.84
2023-10-15T08:38:36.991Z,101829.16
2023-10-15T08:41:16.239Z,101822.06
2023-10-15T08:43:52.265Z,101824.59
2023-10-15T08:46:30.333Z,101828.41
2023-10-15T08:49:07.151Z,101835.47
2023-10-15T08:51:37.947Z,101832.19
2023-10-15T08:54:12.180Z,101839.97
2023-10-15T08:56:40.149Z,101834.03
2023-10-15T08:59:17.208Z,101824.16
2023-10-15T09:01:51.523Z,101836.69
2023-10-15T09:04:31.184Z,101832.34
2023-10-15T09:07:14.209Z,101828.69
2023-10-15T09:09:54.190Z,101837.06
2023-10-15T09:12:20.989Z,101833.59
2023-10-15T09:14:57.169Z,101846.41
2023-10-15T09:17:25.822Z,101856.66
2023-10-15T09:20:00.282Z,101866.16
2023-10-15T09:22:27.722Z,101880.78
2023-10-15T09:25:01.241Z,101883.53
2023-10-15T09:27:28.197Z,101884.25
2023-10-15T09:30:26.261Z,101876.78
2023-10-15T09:32:53.363Z,101884.94
2023-10-15T09:35:24.107Z,101888.78
2023-10-15T09:37:57.204Z,101870.81
2023-10-15T09:40:39.254Z,101866.25
2023-10-15T09:43:13.223Z,101881.91
2023-10-15T09:45:49.192Z,101876.22
2023-10-15T09:48:16.240Z,101885.56
2023-10-15T09:50:44.030Z,101878.44
2023-10-15T09:53:18.262Z,101890.69
2023-10-15T09:55:47.135Z,101883.28
2023-10-15T09:58:20.210Z,101878.81
2023-10-15T10:00:55.023Z,101895.94
2023-10-15T10:03:55.295Z,101888.47
2023-10-15T10:06:33.067Z,101900.41
2023-10-15T10:09:06.259Z,101898.69
2023-10-15T10:11:58.092Z,101905.09
2023-10-15T10:14:52.236Z,101909.41
2023-10-15T10:17:22.145Z,101919.81
2023-10-15T10:20:00.397Z,101912.44
2023-10-15T10:22:28.228Z,101915.00
2023-10-15T10:25:03.233Z,101916.59
2023-10-15T10:27:41.116Z,101924.78
2023-10-15T10:30:35.234Z,101924.00
2023-10-15T10:33:05.623Z,101923.09
2023-10-15T10:35:51.249Z,101931.16
2023-10-15T10:38:19.706Z,101923.75
2023-10-15T10:40:55.290Z,101926.81
2023-10-15T10:43:25.908Z,101914.44
2023-10-15T10:46:03.252Z,101917.94
2023-10-15T10:48:34.742Z,101911.69
2023-10-15T10:51:29.220Z,101920.59
2023-10-15T10:53:58.957Z,101934.13
2023-10-15T10:56:52.294Z,101925.75
2023-10-15T10:59:20.295Z,101932.50
2023-10-15T11:01:53.361Z,101924.91
2023-10-15T11:04:26.821Z,101932.06
2023-10-15T11:07:00.235Z,101935.75
2023-10-15T11:09:26.993Z,101927.53
2023-10-15T11:12:01.288Z,101923.81
2023-10-15T11:14:30.831Z,101930.41
2023-10-15T11:17:04.269Z,101928.25
2023-10-15T11:19:31.411Z,101922.47
2023-10-15T11:22:05.309Z,101927.25
2023-10-15T11:24:38.260Z,101921.69
2023-10-15T11:27:08.880Z,101930.44
2023-10-15T11:29:42.212Z,101913.41
2023-10-15T11:32:12.891Z,101925.31
2023-10-15T11:34:47.301Z,101927.13
2023-10-15T11:37:15.115Z,101929.16
2023-10-15T11:39:55.306Z,101931.56
2023-10-15T11:42:22.218Z,101932.16
2023-10-15T11:45:03.290Z,101928.88
2023-10-15T11:47:40.413Z,101929.59
2023-10-15T11:50:08.630Z,101921.50
2023-10-15T11:52:48.370Z,101933.63
2023-10-15T11:55:20.911Z,101930.44
2023-10-15T11:58:02.264Z,101934.34
2023-10-15T12:00:34.867Z,101943.63
2023-10-15T12:03:17.495Z,101928.28
2023-10-15T12:05:51.322Z,101946.38
2023-10-15T12:08:32.358Z,101941.13
2023-10-15T12:10:59.243Z,101942.94
2023-10-15T12:13:32.321Z,101935.13
2023-10-15T12:15:59.030Z,101952.03
2023-10-15T12:18:32.304Z,101933.66
2023-10-15T12:21:07.281Z,101959.28
2023-10-15T12:23:34.341Z,101949.13
2023-10-15T12:26:08.333Z,101959.56
2023-10-15T12:28:51.417Z,101944.78
2023-10-15T12:31:18.954Z,101965.44
2023-10-15T12:33:47.906Z,101962.16
2023-10-15T12:36:21.286Z,101974.56
2023-10-15T12:38:49.347Z,101972.06
2023-10-15T12:41:23.365Z,101973.59
2023-10-15T12:43:50.691Z,101971.41
2023-10-15T12:46:24.326Z,102001.63
2023-10-15T12:48:50.969Z,102023.13
2023-10-15T12:51:24.326Z,102006.22
2023-10-15T12:53:57.350Z,102029.81
2023-10-15T12:56:35.373Z,102011.91
2023-10-15T12:59:02.159Z,101985.31
2023-10-15T13:01:28.955Z,101972.72
2023-10-15T13:04:02.341Z,101973.94
2023-10-15T13:06:29.032Z,101978.03
2023-10-15T13:09:03.312Z,101986.38
2023-10-15T13:11:30.056Z,101986.44
2023-10-15T13:14:03.375Z,101997.03
2023-10-15T13:16:31.207Z,101996.47
2023-10-15T13:19:04.300Z,102004.34
2023-10-15T13:21:31.145Z,102000.41
2023-10-15T13:24:05.309Z,102007.56
2023-10-15T13:26:38.370Z,102011.19
2023-10-15T13:29:11.387Z,102002.00
2023-10-15T13:31:38.542Z,102009.44
2023-10-15T13:34:14.357Z,102014.34
2023-10-15T13:36:41.101Z,102019.84
2023-10-15T13:39:23.368Z,102023.38
2023-10-15T13:41:50.328Z,101997.88
2023-10-15T13:44:23.401Z,102023.03
2023-10-15T13:46:56.341Z,102011.75
2023-10-15T13:49:23.261Z,102023.25
2023-10-15T13:51:56.372Z,102010.94
2023-10-15T13:54:23.570Z,102029.59
2023-10-15T13:56:57.357Z,102031.19
2023-10-15T13:59:24.393Z,102014.91
2023-10-15T14:01:58.486Z,102032.84
2023-10-15T14:04:32.466Z,102040.50
2023-10-15T14:07:05.398Z,102035.97
2023-10-15T14:09:38.973Z,102041.59
2023-10-15T14:12:12.376Z,102040.28
2023-10-15T14:14:39.152Z,102031.00
2023-10-15T14:17:12.540Z,102037.25
2023-10-15T14:19:39.876Z,102020.06
2023-10-15T14:22:13.333Z,102038.03
2023-10-15T14:24:40.016Z,102037.19
2023-10-15T14:27:06.686Z,102038.88
2023-10-15T14:29:40.363Z,102038.38
2023-10-15T14:32:08.019Z,102033.94
2023-10-15T14:34:41.438Z,102035.41
2023-10-15T14:37:08.188Z,102026.78
2023-10-15T14:39:41.348Z,102037.75
2023-10-15T14:42:08.083Z,102033.53
2023-10-15T14:44:42.391Z,102037.28
2023-10-15T14:47:16.440Z,102026.00
2023-10-15T14:49:51.498Z,102028.06
2023-10-15T14:52:24.334Z,102043.09
2023-10-15T14:54:57.344Z,102042.34
2023-10-15T14:57:30.416Z,102043.28
2023-10-15T14:59:57.172Z,102051.44
2023-10-15T15:02:30.444Z,102054.84
2023-10-15T15:04:57.275Z,102049.22
2023-10-15T15:07:30.389Z,102045.06
2023-10-15T15:09:57.217Z,102051.19
2023-10-15T15:12:30.397Z,102051.34
2023-10-15T15:14:58.373Z,102051.63
2023-10-15T15:17:31.505Z,102051.91
2023-10-15T15:20:05.444Z,102059.69
2023-10-15T15:22:41.026Z,102067.44
2023-10-15T15:25:09.300Z,102065.88
2023-10-15T15:27:43.468Z,102069.56
2023-10-15T15:30:10.890Z,102069.00
2023-10-15T15:32:38.554Z,102061.41
2023-10-15T15:35:15.594Z,102072.19
2023-10-15T15:37:43.374Z,102073.72
2023-10-15T15:40:19.466Z,102075.22
2023-10-15T15:42:46.181Z,102076.00
2023-10-15T15:45:20.434Z,102071.63
2023-10-15T15:47:48.592Z,102072.44
2023-10-15T15:50:25.403Z,102077.94
2023-10-15T15:52:52.181Z,102078.13
2023-10-15T15:55:25.411Z,102080.81
2023-10-15T15:57:59.452Z,102087.91
2023-10-15T16:00:27.712Z,102081.59
2023-10-15T16:03:01.544Z,102080.38
2023-10-15T16:05:43.512Z,102088.84
2023-10-15T16:08:16.486Z,102088.41
2023-10-15T16:10:49.554Z,102091.56
2023-10-15T16:13:17.265Z,102093.81
2023-10-15T16:15:50.464Z,102094.47
2023-10-15T16:18:23.468Z,102103.88
2023-10-15T16:20:52.931Z,102092.94
2023-10-15T16:23:26.444Z,102108.00
2023-10-15T16:25:53.865Z,102113.78
2023-10-15T16:28:27.430Z,102098.75
2023-10-15T16:30:55.367Z,102114.66
2023-10-15T16:33:28.465Z,102109.00
2023-10-15T16:35:55.414Z,102121.88
2023-10-15T16:38:28.420Z,102118.13
2023-10-15T16:41:01.392Z,102122.94
2023-10-15T16:43:34.443Z,102120.81
2023-10-15T16:46:08.605Z,102131.00
2023-10-15T16:48:35.494Z,102134.16
2023-10-15T16:51:24.305Z,102122.31
2023-10-15T16:53:52.794Z,102132.66
2023-10-15T16:56:26.499Z,102138.34
2023-10-15T16:58:53.408Z,102143.19
2023-10-15T17:01:27.560Z,102144.44
2023-10-15T17:04:01.201Z,102145.81
2023-10-15T17:06:41.473Z,102151.50
2023-10-15T17:09:14.761Z,102130.41
2023-10-15T17:11:48.538Z,102155.03
2023-10-15T17:14:15.802Z,102160.75
2023-10-15T17:16:49.566Z,102161.06
2023-10-15T17:19:16.370Z,102164.88
2023-10-15T17:21:50.443Z,102166.91
2023-10-15T17:24:23.585Z,102163.75
2023-10-15T17:26:56.431Z,102159.53
2023-10-15T17:29:33.866Z,102180.06
2023-10-15T17:32:02.994Z,102175.03
2023-10-15T17:34:36.507Z,102176.19
2023-10-15T17:39:56.463Z,102175.88
2023-10-15T17:42:23.363Z,102169.88
2023-10-15T17:44:57.472Z,102177.97
2023-10-15T17:47:24.360Z,102178.97
2023-10-15T17:48:02.658Z,102174.78
2023-10-15T17:49:57.445Z,102178.13
2023-10-15T17:52:24.187Z,102180.94
2023-10-15T17:54:57.482Z,102181.13
2023-10-15T17:57:30.602Z,102179.53
2023-10-15T18:00:03.460Z,102174.38
2023-10-15T18:02:50.522Z,102182.59
2023-10-15T18:05:24.532Z,102181.06
2023-10-15T18:07:51.410Z,102170.66
2023-10-15T18:10:25.431Z,102177.84
2023-10-15T18:12:52.125Z,102175.25
2023-10-15T18:15:18.933Z,102177.09
2023-10-15T18:17:52.506Z,102181.78
2023-10-15T18:20:20.201Z,102167.28
2023-10-15T18:22:53.557Z,102185.72
2023-10-15T18:25:20.267Z,102193.66
2023-10-15T18:27:53.485Z,102189.50
2023-10-15T18:30:26.531Z,102197.63
2023-10-15T18:32:59.566Z,102202.13
2023-10-15T18:35:26.327Z,102202.34
2023-10-15T18:37:59.546Z,102213.06
2023-10-15T18:40:32.518Z,102210.72
2023-10-15T18:43:06.500Z,102187.38
2023-10-15T18:45:43.543Z,102210.16
2023-10-15T18:48:16.510Z,102207.88
2023-10-15T18:50:50.699Z,102206.34
2023-10-15T18:53:17.536Z,102223.78
2023-10-15T18:55:50.610Z,102218.53
2023-10-15T18:58:17.311Z,102203.16
2023-10-15T19:00:50.616Z,102217.78
2023-10-15T19:03:37.667Z,102216.16
2023-10-15T19:06:11.513Z,102216.00
2023-10-15T19:08:39.081Z,102214.31
2023-10-15T19:11:05.804Z,102210.84
2023-10-15T19:13:38.488Z,102213.50
2023-10-15T19:16:12.501Z,102208.38
2023-10-15T19:18:48.549Z,102211.03
2023-10-15T19:21:15.334Z,102212.06
2023-10-15T19:23:51.528Z,102214.81
2023-10-15T19:26:27.538Z,102216.63
2023-10-15T19:28:54.341Z,102215.97
2023-10-15T19:31:21.431Z,102224.69
2023-10-15T19:33:54.601Z,102216.28
2023-10-15T19:36:21.349Z,102222.25
2023-10-15T19:38:54.562Z,102220.72
2023-10-15T19:41:21.214Z,102218.31
2023-10-15T19:43:54.493Z,102226.97
2023-10-15T19:46:21.326Z,102235.00
2023-10-15T19:48:55.578Z,102242.22
2023-10-15T19:51:22.326Z,102235.28
2023-10-15T19:53:55.559Z,102240.69
2023-10-15T19:56:22.319Z,102238.25
2023-10-15T19:58:55.540Z,102235.91
2023-10-15T20:01:22.222Z,102237.63
2023-10-15T20:04:07.372Z,102243.97
2023-10-15T20:06:41.560Z,102231.31
2023-10-15T20:09:11.679Z,102243.38
2023-10-15T20:11:45.592Z,102249.56
2023-10-15T20:14:12.398Z,102241.84
2023-10-15T20:16:45.608Z,102252.50
2023-10-15T20:19:12.233Z,102255.25
2023-10-15T20:21:46.554Z,102258.91
2023-10-15T20:24:20.556Z,102239.91
2023-10-15T20:26:53.543Z,102252.97
2023-10-15T20:29:20.218Z,102239.31
2023-10-15T20:31:53.542Z,102254.06
2023-10-15T20:34:20.257Z,102252.47
2023-10-15T20:36:46.987Z,102250.00
2023-10-15T20:39:26.545Z,102256.28
2023-10-15T20:41:53.292Z,102255.56
2023-10-15T20:44:27.714Z,102255.59
2023-10-15T20:46:54.735Z,102250.50
2023-10-15T20:49:27.543Z,102241.94
2023-10-15T20:51:54.359Z,102259.47
2023-10-15T20:54:27.762Z,102259.53
2023-10-15T20:57:01.512Z,102258.72
2023-10-15T20:59:35.597Z,102262.25
2023-10-15T21:02:02.980Z,102253.63
2023-10-15T21:04:43.540Z,102261.63
2023-10-15T21:07:10.626Z,102255.47
2023-10-15T21:09:43.579Z,102245.84
2023-10-15T21:12:11.497Z,102246.78
2023-10-15T21:14:45.524Z,102251.94
2023-10-15T21:17:18.529Z,102255.41
2023-10-15T21:19:51.557Z,102253.50
2023-10-15T21:22:24.717Z,102257.75
2023-10-15T21:24:51.608Z,102257.50
2023-10-15T21:27:27.578Z,102253.84
2023-10-15T21:29:54.637Z,102250.19
2023-10-15T21:32:21.304Z,102231.78
2023-10-15T21:34:54.614Z,102243.72
2023-10-15T21:37:27.581Z,102249.91
2023-10-15T21:39:54.322Z,102248.97
2023-10-15T21:42:27.577Z,102245.44
2023-10-15T21:44:54.278Z,102242.19
2023-10-15T21:47:27.596Z,102250.13
2023-10-15T21:49:54.334Z,102252.06
2023-10-15T21:52:27.601Z,102250.44
2023-10-15T21:54:54.290Z,102247.00
2023-10-15T21:57:21.021Z,102237.56
2023-10-15T21:59:55.631Z,102247.13
2023-10-15T22:02:22.426Z,102228.94
2023-10-15T22:04:55.614Z,102233.22
2023-10-15T22:07:22.313Z,102247.41
2023-10-15T22:09:55.674Z,102239.72
2023-10-15T22:12:23.690Z,102237.09
2023-10-15T22:14:56.634Z,102223.38
2023-10-15T22:17:23.373Z,102237.28
2023-10-15T22:19:51.542Z,102242.72
2023-10-15T22:22:25.614Z,102240.06
2023-10-15T22:24:59.621Z,102239.25
2023-10-15T22:27:27.037Z,102227.94
2023-10-15T22:30:01.628Z,102228.81
2023-10-15T22:32:30.789Z,102229.75
2023-10-15T22:35:01.265Z,102225.44
2023-10-15T22:37:35.617Z,102223.66
2023-10-15T22:40:08.589Z,102222.84
2023-10-15T22:42:35.344Z,102215.09
2023-10-15T22:45:08.650Z,102209.13
2023-10-15T22:47:45.632Z,102216.88
2023-10-15T22:50:17.839Z,102221.22
2023-10-15T22:52:51.571Z,102214.22
2023-10-15T22:55:18.408Z,102225.50
2023-10-15T22:57:51.687Z,102221.88
2023-10-15T23:00:24.225Z,102225.34
2023-10-15T23:02:59.608Z,102210.63
2023-10-15T23:05:43.571Z,102234.19
2023-10-15T23:08:17.658Z,102228.94
2023-10-15T23:10:44.428Z,102218.50
2023-10-15T23:13:17.654Z,102225.69
2023-10-15T23:15:44.500Z,102218.59
2023-10-15T23:18:23.724Z,102223.88
2023-10-15T23:20:53.616Z,102221.34
2023-10-15T23:23:27.640Z,102221.47
2023-10-15T23:25:54.588Z,102218.97
2023-10-15T23:28:33.630Z,102223.44
2023-10-15T23:31:08.736Z,102218.25
2023-10-15T23:33:35.535Z,102214.00
2023-10-15T23:36:13.729Z,102217.50
2023-10-15T23:38:42.475Z,102214.00
2023-10-15T23:41:15.703Z,102206.97
2023-10-15T23:43:42.378Z,102213.13
2023-10-15T23:46:15.695Z,102219.34
2023-10-15T23:48:49.660Z,102212.19
2023-10-15T23:51:22.687Z,102213.94
2023-10-15T23:53:53.596Z,102203.59
2023-10-15T23:56:32.613Z,102214.84
2023-10-15T23:58:59.386Z,102218.38
